sensor_id;sensor_type;location;lat;lon;timestamp;pressure;altitude;pressure_sealevel;temperature;humidity
8059;BME280;75058;42.668;23.396;2024-03-25T00:01:57;93923.88;;;3.87;74.37
8059;BME280;75058;42.668;23.396;2024-03-25T00:04:24;93938.72;;;3.74;74.22
8059;BME280;75058;42.668;23.396;2024-03-25T00:06:51;93943.31;;;3.72;73.66
8059;BME280;75058;42.668;23.396;2024-03-25T00:09:18;93944.16;;;3.59;74.12
8059;BME280;75058;42.668;23.396;2024-03-25T00:11:46;93950.63;;;3.44;73.94
8059;BME280;75058;42.668;23.396;2024-03-25T00:14:13;93948.72;;;3.26;74.74
8059;BME280;75058;42.668;23.396;2024-03-25T00:16:39;93945.56;;;3.24;74.75
8059;BME280;75058;42.668;23.396;2024-03-25T00:19:08;93929.66;;;3.27;75.11
8059;BME280;75058;42.668;23.396;2024-03-25T00:21:34;93937.00;;;3.24;75.17
8059;BME280;75058;42.668;23.396;2024-03-25T00:24:01;93929.91;;;3.12;75.77
8059;BME280;75058;42.668;23.396;2024-03-25T00:26:27;93936.66;;;3.13;74.57
8059;BME280;75058;42.668;23.396;2024-03-25T00:28:54;93939.38;;;3.25;74.97
8059;BME280;75058;42.668;23.396;2024-03-25T00:31:20;93927.78;;;3.03;75.05
8059;BME280;75058;42.668;23.396;2024-03-25T00:33:48;93928.69;;;3.15;74.89
8059;BME280;75058;42.668;23.396;2024-03-25T00:36:15;93917.59;;;3.08;76.20
8059;BME280;75058;42.668;23.396;2024-03-25T00:38:42;93914.59;;;3.11;75.06
8059;BME280;75058;42.668;23.396;2024-03-25T00:41:09;93896.03;;;2.89;75.63
8059;BME280;75058;42.668;23.396;2024-03-25T00:43:36;93903.66;;;3.16;75.81
8059;BME280;75058;42.668;23.396;2024-03-25T00:46:02;93914.47;;;3.37;75.08
8059;BME280;75058;42.668;23.396;2024-03-25T00:48:29;93912.91;;;3.30;75.41
8059;BME280;75058;42.668;23.396;2024-03-25T00:50:55;93911.50;;;3.34;75.44
8059;BME280;75058;42.668;23.396;2024-03-25T00:53:23;93915.09;;;3.64;74.79
8059;BME280;75058;42.668;23.396;2024-03-25T00:55:49;93905.00;;;3.56;74.73
8059;BME280;75058;42.668;23.396;2024-03-25T00:58:17;93907.16;;;3.65;75.73
8059;BME280;75058;42.668;23.396;2024-03-25T01:00:43;93894.75;;;3.74;74.89
8059;BME280;75058;42.668;23.396;2024-03-25T01:03:10;93893.47;;;3.83;74.95
8059;BME280;75058;42.668;23.396;2024-03-25T01:05:36;93899.28;;;3.78;74.33
8059;BME280;75058;42.668;23.396;2024-03-25T01:08:03;93894.03;;;3.85;75.45
8059;BME280;75058;42.668;23.396;2024-03-25T01:10:30;93850.38;;;3.70;74.75
8059;BME280;75058;42.668;23.396;2024-03-25T01:12:57;93865.22;;;3.81;74.82
8059;BME280;75058;42.668;23.396;2024-03-25T01:15:24;93885.25;;;3.92;74.84
8059;BME280;75058;42.668;23.396;2024-03-25T01:17:51;93879.59;;;3.77;74.04
8059;BME280;75058;42.668;23.396;2024-03-25T01:20:17;93871.56;;;3.85;75.18
8059;BME280;75058;42.668;23.396;2024-03-25T01:22:44;93872.41;;;3.79;75.29
8059;BME280;75058;42.668;23.396;2024-03-25T01:25:10;93864.75;;;3.91;74.84
8059;BME280;75058;42.668;23.396;2024-03-25T01:27:38;93868.53;;;4.13;74.39
8059;BME280;75058;42.668;23.396;2024-03-25T01:30:06;93869.75;;;4.11;74.74
8059;BME280;75058;42.668;23.396;2024-03-25T01:32:33;93874.19;;;4.04;75.16
8059;BME280;75058;42.668;23.396;2024-03-25T01:34:59;93883.41;;;4.18;74.01
8059;BME280;75058;42.668;23.396;2024-03-25T01:37:26;93877.41;;;3.99;74.51
8059;BME280;75058;42.668;23.396;2024-03-25T01:39:53;93880.88;;;4.11;75.32
8059;BME280;75058;42.668;23.396;2024-03-25T01:42:20;93887.84;;;4.11;74.34
8059;BME280;75058;42.668;23.396;2024-03-25T01:44:47;93891.34;;;3.98;73.66
8059;BME280;75058;42.668;23.396;2024-03-25T01:47:14;93888.34;;;3.76;74.70
8059;BME280;75058;42.668;23.396;2024-03-25T01:49:41;93884.22;;;3.93;74.32
8059;BME280;75058;42.668;23.396;2024-03-25T01:52:08;93879.22;;;3.99;73.92
8059;BME280;75058;42.668;23.396;2024-03-25T01:54:33;93881.53;;;3.82;73.45
8059;BME280;75058;42.668;23.396;2024-03-25T01:57:01;93879.59;;;3.77;73.46
8059;BME280;75058;42.668;23.396;2024-03-25T01:59:28;93879.50;;;3.59;75.54
8059;BME280;75058;42.668;23.396;2024-03-25T02:01:57;93890.50;;;3.55;75.66
8059;BME280;75058;42.668;23.396;2024-03-25T02:04:23;93892.66;;;3.58;75.30
8059;BME280;75058;42.668;23.396;2024-03-25T02:06:50;93905.22;;;3.54;75.44
8059;BME280;75058;42.668;23.396;2024-03-25T02:09:17;93902.09;;;3.46;75.22
8059;BME280;75058;42.668;23.396;2024-03-25T02:11:45;93911.59;;;3.52;74.79
8059;BME280;75058;42.668;23.396;2024-03-25T02:14:11;93911.84;;;3.44;75.30
8059;BME280;75058;42.668;23.396;2024-03-25T02:16:39;93910.50;;;3.66;74.23
8059;BME280;75058;42.668;23.396;2024-03-25T02:19:07;93906.53;;;3.70;73.62
8059;BME280;75058;42.668;23.396;2024-03-25T02:21:37;93901.56;;;3.93;73.63
8059;BME280;75058;42.668;23.396;2024-03-25T02:24:05;93909.16;;;4.13;72.61
8059;BME280;75058;42.668;23.396;2024-03-25T02:26:35;93895.94;;;3.96;73.08
8059;BME280;75058;42.668;23.396;2024-03-25T02:29:01;93899.06;;;4.05;72.65
8059;BME280;75058;42.668;23.396;2024-03-25T02:31:29;93894.66;;;3.87;72.49
8059;BME280;75058;42.668;23.396;2024-03-25T02:33:55;93899.22;;;3.60;72.28
8059;BME280;75058;42.668;23.396;2024-03-25T02:36:22;93888.47;;;3.63;72.44
8059;BME280;75058;42.668;23.396;2024-03-25T02:38:48;93906.75;;;3.93;72.06
8059;BME280;75058;42.668;23.396;2024-03-25T02:41:15;93912.53;;;3.57;72.49
8059;BME280;75058;42.668;23.396;2024-03-25T02:43:43;93909.94;;;3.88;72.76
8059;BME280;75058;42.668;23.396;2024-03-25T02:46:10;93908.56;;;3.86;71.45
8059;BME280;75058;42.668;23.396;2024-03-25T02:48:36;93914.16;;;3.83;71.66
8059;BME280;75058;42.668;23.396;2024-03-25T02:51:03;93910.25;;;3.74;71.49
8059;BME280;75058;42.668;23.396;2024-03-25T02:53:29;93906.56;;;3.88;70.88
8059;BME280;75058;42.668;23.396;2024-03-25T02:55:56;93916.06;;;3.94;71.86
8059;BME280;75058;42.668;23.396;2024-03-25T02:58:22;93898.66;;;4.08;70.52
8059;BME280;75058;42.668;23.396;2024-03-25T03:00:51;93913.91;;;4.16;71.16
8059;BME280;75058;42.668;23.396;2024-03-25T03:03:16;93913.22;;;4.45;70.56
8059;BME280;75058;42.668;23.396;2024-03-25T03:05:43;93917.97;;;4.30;69.89
8059;BME280;75058;42.668;23.396;2024-03-25T03:08:10;93931.44;;;4.14;68.90
8059;BME280;75058;42.668;23.396;2024-03-25T03:10:37;93930.25;;;4.34;69.53
8059;BME280;75058;42.668;23.396;2024-03-25T03:13:03;93932.19;;;4.39;68.98
8059;BME280;75058;42.668;23.396;2024-03-25T03:15:30;93904.38;;;4.34;68.84
8059;BME280;75058;42.668;23.396;2024-03-25T03:17:58;93933.81;;;4.58;68.66
8059;BME280;75058;42.668;23.396;2024-03-25T03:20:25;93930.81;;;4.61;68.52
8059;BME280;75058;42.668;23.396;2024-03-25T03:22:51;93929.78;;;4.62;68.24
8059;BME280;75058;42.668;23.396;2024-03-25T03:25:18;93932.25;;;4.57;68.30
8059;BME280;75058;42.668;23.396;2024-03-25T03:27:44;93890.72;;;4.45;67.83
8059;BME280;75058;42.668;23.396;2024-03-25T03:30:11;93935.06;;;4.55;67.61
8059;BME280;75058;42.668;23.396;2024-03-25T03:32:37;93949.28;;;4.64;67.45
8059;BME280;75058;42.668;23.396;2024-03-25T03:35:07;93955.91;;;4.60;67.02
8059;BME280;75058;42.668;23.396;2024-03-25T03:37:33;93958.22;;;4.50;66.57
8059;BME280;75058;42.668;23.396;2024-03-25T03:40:00;93958.78;;;4.52;66.33
8059;BME280;75058;42.668;23.396;2024-03-25T03:42:26;93957.22;;;4.69;66.09
8059;BME280;75058;42.668;23.396;2024-03-25T03:44:53;93958.53;;;4.36;66.76
8059;BME280;75058;42.668;23.396;2024-03-25T03:47:19;93953.84;;;4.26;67.36
8059;BME280;75058;42.668;23.396;2024-03-25T03:49:46;93959.22;;;4.25;67.48
8059;BME280;75058;42.668;23.396;2024-03-25T03:52:14;93961.84;;;4.43;67.74
8059;BME280;75058;42.668;23.396;2024-03-25T03:54:40;93954.59;;;4.51;67.23
8059;BME280;75058;42.668;23.396;2024-03-25T03:57:06;93960.34;;;4.53;66.56
8059;BME280;75058;42.668;23.396;2024-03-25T03:59:33;93953.78;;;4.33;67.20
8059;BME280;75058;42.668;23.396;2024-03-25T04:01:59;93953.31;;;4.42;67.06
8059;BME280;75058;42.668;23.396;2024-03-25T04:04:26;93961.53;;;4.33;67.64
8059;BME280;75058;42.668;23.396;2024-03-25T04:06:52;93967.94;;;4.55;66.33
8059;BME280;75058;42.668;23.396;2024-03-25T04:09:20;93991.06;;;4.75;65.04
8059;BME280;75058;42.668;23.396;2024-03-25T04:11:49;93992.41;;;4.77;64.33
8059;BME280;75058;42.668;23.396;2024-03-25T04:14:16;93988.47;;;4.93;64.75
8059;BME280;75058;42.668;23.396;2024-03-25T04:16:42;93977.25;;;4.81;64.22
8059;BME280;75058;42.668;23.396;2024-03-25T04:19:09;93991.13;;;4.86;64.96
8059;BME280;75058;42.668;23.396;2024-03-25T04:21:35;93997.63;;;4.95;64.65
8059;BME280;75058;42.668;23.396;2024-03-25T04:24:02;93997.78;;;5.00;65.18
8059;BME280;75058;42.668;23.396;2024-03-25T04:26:30;94003.78;;;4.94;64.84
8059;BME280;75058;42.668;23.396;2024-03-25T04:28:57;93998.56;;;4.58;65.23
8059;BME280;75058;42.668;23.396;2024-03-25T04:31:23;94009.28;;;4.86;65.01
8059;BME280;75058;42.668;23.396;2024-03-25T04:33:50;94013.47;;;5.05;65.34
8059;BME280;75058;42.668;23.396;2024-03-25T04:36:16;94009.44;;;4.91;64.04
8059;BME280;75058;42.668;23.396;2024-03-25T04:38:43;94015.31;;;4.80;65.27
8059;BME280;75058;42.668;23.396;2024-03-25T04:41:09;94029.94;;;4.93;64.19
8059;BME280;75058;42.668;23.396;2024-03-25T04:43:36;94038.22;;;5.01;64.78
8059;BME280;75058;42.668;23.396;2024-03-25T04:46:03;94045.19;;;4.83;64.06
8059;BME280;75058;42.668;23.396;2024-03-25T04:48:29;94052.34;;;5.05;63.45
8059;BME280;75058;42.668;23.396;2024-03-25T04:50:55;94048.31;;;5.09;64.20
8059;BME280;75058;42.668;23.396;2024-03-25T04:53:21;94052.66;;;5.33;63.78
8059;BME280;75058;42.668;23.396;2024-03-25T04:55:47;94070.31;;;5.43;63.52
8059;BME280;75058;42.668;23.396;2024-03-25T04:58:13;94060.34;;;5.04;63.05
8059;BME280;75058;42.668;23.396;2024-03-25T05:00:40;94055.72;;;5.06;63.89
8059;BME280;75058;42.668;23.396;2024-03-25T05:03:07;94063.97;;;4.96;64.18
8059;BME280;75058;42.668;23.396;2024-03-25T05:05:33;94055.44;;;5.14;63.27
8059;BME280;75058;42.668;23.396;2024-03-25T05:07:59;94060.06;;;5.12;62.68
8059;BME280;75058;42.668;23.396;2024-03-25T05:10:25;94060.22;;;5.17;62.49
8059;BME280;75058;42.668;23.396;2024-03-25T05:12:51;94050.38;;;5.01;62.16
8059;BME280;75058;42.668;23.396;2024-03-25T05:15:17;94060.75;;;5.01;63.25
8059;BME280;75058;42.668;23.396;2024-03-25T05:17:45;94060.69;;;5.07;63.51
8059;BME280;75058;42.668;23.396;2024-03-25T05:20:11;94062.81;;;5.17;62.47
8059;BME280;75058;42.668;23.396;2024-03-25T05:22:37;94055.53;;;5.25;62.40
8059;BME280;75058;42.668;23.396;2024-03-25T05:25:04;94061.44;;;5.14;62.31
8059;BME280;75058;42.668;23.396;2024-03-25T05:27:30;94050.13;;;5.09;61.90
8059;BME280;75058;42.668;23.396;2024-03-25T05:29:56;94067.47;;;5.08;62.40
8059;BME280;75058;42.668;23.396;2024-03-25T05:32:22;94072.03;;;5.13;62.49
8059;BME280;75058;42.668;23.396;2024-03-25T05:34:50;94056.66;;;4.93;62.38
8059;BME280;75058;42.668;23.396;2024-03-25T05:37:16;94063.97;;;5.21;61.51
8059;BME280;75058;42.668;23.396;2024-03-25T05:39:42;94073.47;;;5.45;62.26
8059;BME280;75058;42.668;23.396;2024-03-25T05:42:08;94060.91;;;5.24;60.64
8059;BME280;75058;42.668;23.396;2024-03-25T05:44:34;94077.22;;;5.49;61.04
8059;BME280;75058;42.668;23.396;2024-03-25T05:47:00;94081.81;;;5.29;61.40
8059;BME280;75058;42.668;23.396;2024-03-25T05:49:26;94092.69;;;5.19;61.80
8059;BME280;75058;42.668;23.396;2024-03-25T05:51:53;94094.63;;;5.06;61.42
8059;BME280;75058;42.668;23.396;2024-03-25T05:54:19;94099.38;;;5.09;61.54
8059;BME280;75058;42.668;23.396;2024-03-25T05:56:45;94100.56;;;5.31;61.05
8059;BME280;75058;42.668;23.396;2024-03-25T05:59:11;94096.72;;;5.15;60.58
8059;BME280;75058;42.668;23.396;2024-03-25T06:01:38;94094.72;;;5.35;61.48
8059;BME280;75058;42.668;23.396;2024-03-25T06:04:04;94105.41;;;5.64;59.81
8059;BME280;75058;42.668;23.396;2024-03-25T06:06:30;94111.88;;;5.73;59.90
8059;BME280;75058;42.668;23.396;2024-03-25T06:08:57;94090.84;;;5.44;59.86
8059;BME280;75058;42.668;23.396;2024-03-25T06:11:24;94118.06;;;5.35;59.97
8059;BME280;75058;42.668;23.396;2024-03-25T06:13:50;94116.03;;;5.37;60.23
8059;BME280;75058;42.668;23.396;2024-03-25T06:16:16;94132.56;;;5.61;59.46
8059;BME280;75058;42.668;23.396;2024-03-25T06:18:42;94129.03;;;5.56;59.10
8059;BME280;75058;42.668;23.396;2024-03-25T06:21:08;94132.13;;;5.46;59.36
8059;BME280;75058;42.668;23.396;2024-03-25T06:23:34;94142.06;;;5.67;59.32
8059;BME280;75058;42.668;23.396;2024-03-25T06:26:02;94137.34;;;5.64;59.51
8059;BME280;75058;42.668;23.396;2024-03-25T06:28:28;94131.38;;;5.39;58.99
8059;BME280;75058;42.668;23.396;2024-03-25T06:30:54;94146.56;;;5.78;58.90
8059;BME280;75058;42.668;23.396;2024-03-25T06:33:38;94149.16;;;5.60;57.88
8059;BME280;75058;42.668;23.396;2024-03-25T06:36:22;94146.78;;;5.77;57.19
8059;BME280;75058;42.668;23.396;2024-03-25T06:38:48;94150.53;;;5.81;57.91
8059;BME280;75058;42.668;23.396;2024-03-25T06:41:16;94150.06;;;6.38;57.59
8059;BME280;75058;42.668;23.396;2024-03-25T06:43:42;94155.56;;;6.30;56.87
8059;BME280;75058;42.668;23.396;2024-03-25T06:46:08;94150.69;;;6.04;57.12
8059;BME280;75058;42.668;23.396;2024-03-25T06:48:34;94147.94;;;5.99;56.78
8059;BME280;75058;42.668;23.396;2024-03-25T06:51:01;94159.09;;;5.81;57.27
8059;BME280;75058;42.668;23.396;2024-03-25T06:53:27;94170.75;;;6.45;56.55
8059;BME280;75058;42.668;23.396;2024-03-25T06:55:55;94179.72;;;6.90;55.90
8059;BME280;75058;42.668;23.396;2024-03-25T06:58:23;94178.88;;;7.31;54.57
8059;BME280;75058;42.668;23.396;2024-03-25T07:00:50;94176.13;;;7.03;54.65
8059;BME280;75058;42.668;23.396;2024-03-25T07:03:16;94165.22;;;7.35;53.70
8059;BME280;75058;42.668;23.396;2024-03-25T07:05:44;94172.34;;;7.63;53.80
8059;BME280;75058;42.668;23.396;2024-03-25T07:08:10;94181.88;;;8.32;53.21
8059;BME280;75058;42.668;23.396;2024-03-25T07:10:36;94170.59;;;8.03;53.03
8059;BME280;75058;42.668;23.396;2024-03-25T07:13:02;94168.72;;;7.75;53.04
8059;BME280;75058;42.668;23.396;2024-03-25T07:15:30;94186.06;;;8.21;52.59
8059;BME280;75058;42.668;23.396;2024-03-25T07:17:56;94180.28;;;8.31;52.15
8059;BME280;75058;42.668;23.396;2024-03-25T07:20:22;94177.88;;;7.43;52.88
8059;BME280;75058;42.668;23.396;2024-03-25T07:22:48;94190.88;;;7.90;52.92
8059;BME280;75058;42.668;23.396;2024-03-25T07:25:14;94185.66;;;8.01;51.22
8059;BME280;75058;42.668;23.396;2024-03-25T07:27:40;94192.56;;;8.59;49.54
8059;BME280;75058;42.668;23.396;2024-03-25T07:30:07;94195.41;;;8.57;50.09
8059;BME280;75058;42.668;23.396;2024-03-25T07:32:35;94188.75;;;7.75;51.58
8059;BME280;75058;42.668;23.396;2024-03-25T07:35:01;94205.81;;;6.95;53.82
8059;BME280;75058;42.668;23.396;2024-03-25T07:37:27;94201.59;;;7.24;52.33
8059;BME280;75058;42.668;23.396;2024-03-25T07:39:54;94181.94;;;7.28;52.98
8059;BME280;75058;42.668;23.396;2024-03-25T07:42:20;94160.97;;;6.99;52.13
8059;BME280;75058;42.668;23.396;2024-03-25T07:44:46;94203.00;;;7.84;51.93
8059;BME280;75058;42.668;23.396;2024-03-25T07:47:12;94203.22;;;7.94;50.66
8059;BME280;75058;42.668;23.396;2024-03-25T07:49:40;94204.13;;;7.88;50.81
8059;BME280;75058;42.668;23.396;2024-03-25T07:52:06;94197.63;;;8.37;50.66
8059;BME280;75058;42.668;23.396;2024-03-25T07:54:32;94201.81;;;8.66;49.27
8059;BME280;75058;42.668;23.396;2024-03-25T07:56:59;94206.47;;;8.92;49.25
8059;BME280;75058;42.668;23.396;2024-03-25T07:59:25;94132.25;;;7.75;50.14
8059;BME280;75058;42.668;23.396;2024-03-25T08:01:51;94205.47;;;7.79;51.42
8059;BME280;75058;42.668;23.396;2024-03-25T08:04:17;94212.28;;;7.57;51.61
8059;BME280;75058;42.668;23.396;2024-03-25T08:06:45;94221.25;;;8.47;49.25
8059;BME280;75058;42.668;23.396;2024-03-25T08:09:11;94213.09;;;8.83;49.78
8059;BME280;75058;42.668;23.396;2024-03-25T08:11:36;94212.59;;;8.70;49.61
8059;BME280;75058;42.668;23.396;2024-03-25T08:14:03;94215.56;;;8.10;48.97
8059;BME280;75058;42.668;23.396;2024-03-25T08:16:29;94224.72;;;7.66;51.67
8059;BME280;75058;42.668;23.396;2024-03-25T08:18:55;94218.78;;;8.40;50.43
8059;BME280;75058;42.668;23.396;2024-03-25T08:21:22;94216.28;;;8.85;49.38
8059;BME280;75058;42.668;23.396;2024-03-25T08:23:50;94228.19;;;9.26;48.34
8059;BME280;75058;42.668;23.396;2024-03-25T08:26:16;94226.75;;;8.74;48.25
8059;BME280;75058;42.668;23.396;2024-03-25T08:28:43;94230.16;;;8.74;49.33
8059;BME280;75058;42.668;23.396;2024-03-25T08:31:09;94233.53;;;8.35;48.89
8059;BME280;75058;42.668;23.396;2024-03-25T08:33:35;94236.28;;;7.82;50.27
8059;BME280;75058;42.668;23.396;2024-03-25T08:36:01;94208.44;;;7.71;51.25
8059;BME280;75058;42.668;23.396;2024-03-25T08:38:28;94237.31;;;8.27;50.75
8059;BME280;75058;42.668;23.396;2024-03-25T08:40:56;94230.56;;;9.11;48.45
8059;BME280;75058;42.668;23.396;2024-03-25T08:43:22;94239.81;;;9.18;46.75
8059;BME280;75058;42.668;23.396;2024-03-25T08:45:48;94232.13;;;9.12;47.02
8059;BME280;75058;42.668;23.396;2024-03-25T08:48:14;94240.69;;;8.28;48.06
8059;BME280;75058;42.668;23.396;2024-03-25T08:50:40;94234.84;;;8.49;48.11
8059;BME280;75058;42.668;23.396;2024-03-25T08:53:06;94242.84;;;8.99;46.78
8059;BME280;75058;42.668;23.396;2024-03-25T08:55:33;94224.59;;;8.99;46.72
8059;BME280;75058;42.668;23.396;2024-03-25T08:58:00;94235.19;;;9.09;47.34
8059;BME280;75058;42.668;23.396;2024-03-25T09:00:27;94243.06;;;8.81;46.61
8059;BME280;75058;42.668;23.396;2024-03-25T09:02:54;94252.03;;;9.01;47.52
8059;BME280;75058;42.668;23.396;2024-03-25T09:05:20;94236.72;;;8.14;48.64
8059;BME280;75058;42.668;23.396;2024-03-25T09:07:49;94245.44;;;7.73;49.11
8059;BME280;75058;42.668;23.396;2024-03-25T09:10:15;94225.72;;;8.75;47.86
8059;BME280;75058;42.668;23.396;2024-03-25T09:13:01;94238.69;;;8.98;46.07
8059;BME280;75058;42.668;23.396;2024-03-25T09:15:27;94244.31;;;9.06;46.37
8059;BME280;75058;42.668;23.396;2024-03-25T09:17:53;94241.91;;;8.48;47.70
8059;BME280;75058;42.668;23.396;2024-03-25T09:20:19;94251.28;;;8.49;47.77
8059;BME280;75058;42.668;23.396;2024-03-25T09:22:46;94258.84;;;9.02;46.49
8059;BME280;75058;42.668;23.396;2024-03-25T09:25:12;94253.22;;;9.39;45.80
8059;BME280;75058;42.668;23.396;2024-03-25T09:27:38;94252.22;;;9.11;45.84
8059;BME280;75058;42.668;23.396;2024-03-25T09:30:06;94260.38;;;9.15;45.78
8059;BME280;75058;42.668;23.396;2024-03-25T09:32:33;94257.56;;;9.05;46.11
8059;BME280;75058;42.668;23.396;2024-03-25T09:34:59;94261.47;;;9.47;45.09
8059;BME280;75058;42.668;23.396;2024-03-25T09:37:25;94265.50;;;9.55;45.15
8059;BME280;75058;42.668;23.396;2024-03-25T09:39:51;94265.50;;;9.71;44.71
8059;BME280;75058;42.668;23.396;2024-03-25T09:42:22;94261.63;;;9.12;46.13
8059;BME280;75058;42.668;23.396;2024-03-25T09:44:51;94274.97;;;9.27;45.08
8059;BME280;75058;42.668;23.396;2024-03-25T09:47:19;94267.13;;;8.71;46.83
8059;BME280;75058;42.668;23.396;2024-03-25T09:49:45;94266.56;;;8.97;46.80
8059;BME280;75058;42.668;23.396;2024-03-25T09:52:12;94272.72;;;9.19;46.25
8059;BME280;75058;42.668;23.396;2024-03-25T09:54:38;94280.09;;;9.39;46.32
8059;BME280;75058;42.668;23.396;2024-03-25T09:57:04;94248.78;;;8.94;47.18
8059;BME280;75058;42.668;23.396;2024-03-25T09:59:31;94274.75;;;8.61;48.17
8059;BME280;75058;42.668;23.396;2024-03-25T10:01:58;94281.00;;;8.02;48.39
8059;BME280;75058;42.668;23.396;2024-03-25T10:04:26;94267.72;;;8.50;48.28
8059;BME280;75058;42.668;23.396;2024-03-25T10:06:52;94266.84;;;8.33;45.88
8059;BME280;75058;42.668;23.396;2024-03-25T10:09:19;94268.28;;;8.64;46.77
8059;BME280;75058;42.668;23.396;2024-03-25T10:11:47;94271.00;;;9.25;45.76
8059;BME280;75058;42.668;23.396;2024-03-25T10:14:15;94276.97;;;9.54;45.59
8059;BME280;75058;42.668;23.396;2024-03-25T10:16:41;94293.78;;;9.29;46.03
8059;BME280;75058;42.668;23.396;2024-03-25T10:19:07;94271.78;;;8.97;46.34
8059;BME280;75058;42.668;23.396;2024-03-25T10:21:37;94277.22;;;9.24;44.81
8059;BME280;75058;42.668;23.396;2024-03-25T10:24:04;94284.97;;;8.91;45.06
8059;BME280;75058;42.668;23.396;2024-03-25T10:26:32;94273.53;;;8.40;46.77
8059;BME280;75058;42.668;23.396;2024-03-25T10:29:02;94282.00;;;9.27;45.05
8059;BME280;75058;42.668;23.396;2024-03-25T10:31:28;94272.00;;;9.24;45.50
8059;BME280;75058;42.668;23.396;2024-03-25T10:33:55;94271.59;;;9.15;45.44
8059;BME280;75058;42.668;23.396;2024-03-25T10:36:22;94266.59;;;9.42;44.48
8059;BME280;75058;42.668;23.396;2024-03-25T10:38:53;94262.13;;;9.71;45.30
8059;BME280;75058;42.668;23.396;2024-03-25T10:41:20;94262.03;;;10.37;43.11
8059;BME280;75058;42.668;23.396;2024-03-25T10:43:47;94253.38;;;10.15;41.59
8059;BME280;75058;42.668;23.396;2024-03-25T10:46:19;94258.63;;;10.15;42.75
8059;BME280;75058;42.668;23.396;2024-03-25T10:48:52;94219.81;;;9.74;43.11
8059;BME280;75058;42.668;23.396;2024-03-25T10:51:21;94250.75;;;10.75;41.27
8059;BME280;75058;42.668;23.396;2024-03-25T10:53:51;94258.19;;;10.61;40.90
8059;BME280;75058;42.668;23.396;2024-03-25T10:56:20;94253.75;;;10.62;40.21
8059;BME280;75058;42.668;23.396;2024-03-25T10:58:48;94251.06;;;10.57;40.46
8059;BME280;75058;42.668;23.396;2024-03-25T11:01:15;94253.28;;;10.27;41.12
8059;BME280;75058;42.668;23.396;2024-03-25T11:03:42;94258.63;;;10.15;41.11
8059;BME280;75058;42.668;23.396;2024-03-25T11:06:09;94242.00;;;10.43;40.93
8059;BME280;75058;42.668;23.396;2024-03-25T11:08:35;94238.00;;;10.19;41.17
8059;BME280;75058;42.668;23.396;2024-03-25T11:11:06;94250.06;;;9.86;41.03
8059;BME280;75058;42.668;23.396;2024-03-25T11:13:33;94255.13;;;9.60;41.07
8059;BME280;75058;42.668;23.396;2024-03-25T11:15:59;94203.38;;;9.40;40.75
8059;BME280;75058;42.668;23.396;2024-03-25T11:18:25;94247.00;;;9.73;41.40
8059;BME280;75058;42.668;23.396;2024-03-25T11:21:01;94245.13;;;10.06;40.58
8059;BME280;75058;42.668;23.396;2024-03-25T11:23:35;94247.53;;;10.46;39.26
8059;BME280;75058;42.668;23.396;2024-03-25T11:26:03;94246.59;;;10.36;40.52
8059;BME280;75058;42.668;23.396;2024-03-25T11:28:29;94249.44;;;9.79;42.31
8059;BME280;75058;42.668;23.396;2024-03-25T11:30:56;94245.06;;;10.18;42.80
8059;BME280;75058;42.668;23.396;2024-03-25T11:33:22;94257.78;;;9.15;41.46
8059;BME280;75058;42.668;23.396;2024-03-25T11:35:49;94264.69;;;10.21;42.31
8059;BME280;75058;42.668;23.396;2024-03-25T11:38:15;94262.19;;;10.47;41.59
8059;BME280;75058;42.668;23.396;2024-03-25T11:40:42;94284.63;;;10.10;42.08
8059;BME280;75058;42.668;23.396;2024-03-25T11:43:17;94232.00;;;9.52;43.61
8059;BME280;75058;42.668;23.396;2024-03-25T11:45:46;94282.13;;;9.98;43.05
8059;BME280;75058;42.668;23.396;2024-03-25T11:48:14;94281.59;;;10.13;43.22
8059;BME280;75058;42.668;23.396;2024-03-25T11:50:40;94281.09;;;9.99;43.96
8059;BME280;75058;42.668;23.396;2024-03-25T11:53:07;94279.03;;;10.18;43.80
8059;BME280;75058;42.668;23.396;2024-03-25T11:55:33;94268.13;;;9.88;44.57
8059;BME280;75058;42.668;23.396;2024-03-25T11:58:00;94265.19;;;10.56;43.91
8059;BME280;75058;42.668;23.396;2024-03-25T12:00:28;94264.13;;;10.78;43.82
8059;BME280;75058;42.668;23.396;2024-03-25T12:02:54;94274.13;;;9.72;45.21
8059;BME280;75058;42.668;23.396;2024-03-25T12:05:21;94268.91;;;10.22;43.49
8059;BME280;75058;42.668;23.396;2024-03-25T12:07:47;94285.78;;;10.74;42.46
8059;BME280;75058;42.668;23.396;2024-03-25T12:10:14;94285.28;;;10.34;42.67
8059;BME280;75058;42.668;23.396;2024-03-25T12:12:58;94285.13;;;9.90;43.73
8059;BME280;75058;42.668;23.396;2024-03-25T12:15:25;94261.78;;;10.00;43.88
8059;BME280;75058;42.668;23.396;2024-03-25T12:17:53;94268.88;;;10.38;42.60
8059;BME280;75058;42.668;23.396;2024-03-25T12:20:20;94255.06;;;10.43;43.03
8059;BME280;75058;42.668;23.396;2024-03-25T12:22:46;94277.72;;;10.16;43.60
8059;BME280;75058;42.668;23.396;2024-03-25T12:25:12;94280.94;;;10.23;43.72
8059;BME280;75058;42.668;23.396;2024-03-25T12:27:39;94267.09;;;10.44;42.87
8059;BME280;75058;42.668;23.396;2024-03-25T12:30:07;94269.88;;;10.54;43.04
8059;BME280;75058;42.668;23.396;2024-03-25T12:32:37;94262.25;;;10.31;43.32
8059;BME280;75058;42.668;23.396;2024-03-25T12:35:08;94275.72;;;9.73;43.50
8059;BME280;75058;42.668;23.396;2024-03-25T12:37:34;94265.91;;;10.13;42.33
8059;BME280;75058;42.668;23.396;2024-03-25T12:40:00;94269.38;;;10.19;43.24
8059;BME280;75058;42.668;23.396;2024-03-25T12:42:27;94258.84;;;9.80;43.39
8059;BME280;75058;42.668;23.396;2024-03-25T12:44:53;94239.22;;;9.45;43.06
8059;BME280;75058;42.668;23.396;2024-03-25T12:47:20;94254.78;;;9.23;44.26
8059;BME280;75058;42.668;23.396;2024-03-25T12:49:46;94238.59;;;9.09;44.09
8059;BME280;75058;42.668;23.396;2024-03-25T12:52:18;94266.34;;;9.44;43.94
8059;BME280;75058;42.668;23.396;2024-03-25T12:54:44;94268.41;;;10.25;42.31
8059;BME280;75058;42.668;23.396;2024-03-25T12:57:11;94288.97;;;10.38;41.55
8059;BME280;75058;42.668;23.396;2024-03-25T12:59:37;94280.75;;;10.29;41.77
8059;BME280;75058;42.668;23.396;2024-03-25T13:02:03;94262.78;;;10.54;39.32
8059;BME280;75058;42.668;23.396;2024-03-25T13:04:29;94288.53;;;10.41;39.38
8059;BME280;75058;42.668;23.396;2024-03-25T13:06:55;94280.69;;;10.62;38.82
8059;BME280;75058;42.668;23.396;2024-03-25T13:09:23;94296.75;;;9.99;42.06